Mattheos I — P3YV9 — position and weather

sailwx.info

Track history (hours):
 
Tides and Currents Weather Stations Pressure Air Temp Water Temp Dewpoint Dewpoint Depression Visibility Wind Speed Wind Dir Waves Ship Positions

Mattheos I

Last reported at 2018-Jul-23 15:29 UTC. Time now 2018-Jul-23 15:34 UTC.
Position N 09°27' W 079°56'.

Length 183 m; draft 10.9 m.

Type: Tanker. MMSI: 209632000.

Date/timePositionNaut miles runAvg speedWind from/ knotsBaromVisibWave heightAir tempDewpointWater temp
2018-Jul-23 15:29N 09°27' W 079°56'0 0.0
2018-Jul-23 14:54N 09°27' W 079°56'0 0.0
2018-Jul-23 14:27N 09°27' W 079°56'0 0.1
2018-Jul-23 14:00N 09°27' W 079°56'0 0.0
2018-Jul-23 13:27N 09°27' W 079°56'0 0.0
2018-Jul-23 13:00N 09°27' W 079°56'0 0.0
2018-Jul-23 12:30N 09°27' W 079°56'0 0.0
2018-Jul-22 19:44N 09°27' W 079°56'1 1.3
2018-Jul-22 19:21N 09°27' W 079°55'1 2.2
2018-Jul-22 19:00N 09°27' W 079°55'  
2018-Jul-17 12:56N 29°16' W 094°36'510.5
2018-Jul-17 12:28N 29°20' W 094°40'510.6
2018-Jul-17 11:57N 29°21' W 094°46'5 9.5
2018-Jul-17 11:27N 29°22' W 094°51'2 4.4
2018-Jul-17 11:00N 29°22' W 094°53'0 0.2
2018-Jul-17 10:30N 29°22' W 094°53'0 0.0
2018-Jul-17 09:58N 29°22' W 094°53'0 0.0
2018-Jul-17 07:37N 29°22' W 094°53'0 0.0
2018-Jul-17 06:49N 29°22' W 094°53'0 0.0
2018-Jul-17 06:19N 29°22' W 094°53'0 0.0
2018-Jul-17 05:43N 29°22' W 094°53'0 0.0
2018-Jul-17 05:22N 29°22' W 094°53'0 0.0
2018-Jul-17 04:55N 29°22' W 094°53'0 0.0
2018-Jul-17 04:22N 29°22' W 094°53'0 0.0
2018-Jul-17 03:58N 29°22' W 094°53'0 0.0
2018-Jul-17 03:22N 29°22' W 094°53'0 0.0
2018-Jul-17 02:58N 29°22' W 094°53'0 0.0
2018-Jul-17 02:28N 29°22' W 094°53'0 0.0
2018-Jul-15 08:02N 29°22' W 094°53'0 0.2
2018-Jul-15 07:43N 29°22' W 094°53'0 1.1
2018-Jul-15 07:31N 29°22' W 094°53'3 6.2
2018-Jul-15 07:00N 29°22' W 094°50'  
Track history (hours):
 
Tides and Currents Weather Stations Pressure Air Temp Water Temp Dewpoint Dewpoint Depression Visibility Wind Speed Wind Dir Waves Ship Positions

Mattheos I

Last reported at 2018-Jul-23 15:29 UTC. Time now 2018-Jul-23 15:34 UTC.
Position N 09°27' W 079°56'.

Length 183 m; draft 10.9 m.

Type: Tanker. MMSI: 209632000.

Date/timePositionNaut miles runAvg speedWind from/ knotsBaromVisibWave heightAir tempDewpointWater temp
2018-Jul-23 15:29N 09°27' W 079°56'0 0.0
2018-Jul-23 14:54N 09°27' W 079°56'0 0.0
2018-Jul-23 14:27N 09°27' W 079°56'0 0.1
2018-Jul-23 14:00N 09°27' W 079°56'0 0.0
2018-Jul-23 13:27N 09°27' W 079°56'0 0.0
2018-Jul-23 13:00N 09°27' W 079°56'0 0.0
2018-Jul-23 12:30N 09°27' W 079°56'0 0.0
2018-Jul-22 19:44N 09°27' W 079°56'1 1.3
2018-Jul-22 19:21N 09°27' W 079°55'1 2.2
2018-Jul-22 19:00N 09°27' W 079°55'  
2018-Jul-17 12:56N 29°16' W 094°36'510.5
2018-Jul-17 12:28N 29°20' W 094°40'510.6
2018-Jul-17 11:57N 29°21' W 094°46'5 9.5
2018-Jul-17 11:27N 29°22' W 094°51'2 4.4
2018-Jul-17 11:00N 29°22' W 094°53'0 0.2
2018-Jul-17 10:30N 29°22' W 094°53'0 0.0
2018-Jul-17 09:58N 29°22' W 094°53'0 0.0
2018-Jul-17 07:37N 29°22' W 094°53'0 0.0
2018-Jul-17 06:49N 29°22' W 094°53'0 0.0
2018-Jul-17 06:19N 29°22' W 094°53'0 0.0
2018-Jul-17 05:43N 29°22' W 094°53'0 0.0
2018-Jul-17 05:22N 29°22' W 094°53'0 0.0
2018-Jul-17 04:55N 29°22' W 094°53'0 0.0
2018-Jul-17 04:22N 29°22' W 094°53'0 0.0
2018-Jul-17 03:58N 29°22' W 094°53'0 0.0
2018-Jul-17 03:22N 29°22' W 094°53'0 0.0
2018-Jul-17 02:58N 29°22' W 094°53'0 0.0
2018-Jul-17 02:28N 29°22' W 094°53'0 0.0
2018-Jul-15 08:02N 29°22' W 094°53'0 0.2
2018-Jul-15 07:43N 29°22' W 094°53'0 1.1
2018-Jul-15 07:31N 29°22' W 094°53'3 6.2
2018-Jul-15 07:00N 29°22' W 094°50'  

Dump ship's entire track history